Time;durP1;ratioP1;P1;durP2;ratioP2;P2;SDS_P1;SDS_P2;PMS_P1;PMS_P2;Temp;Humidity;BMP_temperature;BMP_pressure;BME280_temperature;BME280_humidity;BME280_pressure;Samples;Min_cycle;Max_cycle;Signal;HPM_P1;HPM_P2
2024/03/29 00:03:47;;;;;;;2.53;0.70;;;2.50;99.90;;;;;;8308970;28;20575;-86
2024/03/29 00:07:47;;;;;;;1.38;0.73;;;2.50;99.90;;;;;;8303561;28;20026;-84
2024/03/29 00:11:48;;;;;;;2.45;0.65;;;2.60;99.90;;;;;;8297014;28;20486;-84
2024/03/29 00:15:48;;;;;;;0.80;0.63;;;2.50;99.90;;;;;;8296884;28;20042;-84
2024/03/29 00:19:49;;;;;;;1.25;0.73;;;2.20;99.90;;;;;;8297390;28;20450;-83
2024/03/29 00:23:50;;;;;;;0.50;0.50;;;1.90;99.90;;;;;;8293341;28;20049;-84
2024/03/29 00:27:51;;;;;;;0.70;0.60;;;1.90;99.90;;;;;;8299672;28;20494;-83
2024/03/29 00:31:51;;;;;;;0.88;0.63;;;2.00;99.90;;;;;;8292180;28;20026;-85
2024/03/29 00:35:52;;;;;;;1.50;0.77;;;1.80;99.90;;;;;;8296856;28;20049;-84
2024/03/29 00:39:52;;;;;;;1.23;0.70;;;1.70;99.90;;;;;;8297135;28;20041;-84
2024/03/29 00:43:53;;;;;;;1.35;0.75;;;1.80;99.90;;;;;;8313461;28;20490;-84
2024/03/29 00:47:53;;;;;;;2.05;1.13;;;1.80;99.90;;;;;;8307011;28;20156;-85
2024/03/29 00:51:54;;;;;;;2.65;1.08;;;1.60;99.90;;;;;;8304524;28;20417;-85
2024/03/29 00:55:54;;;;;;;1.55;1.10;;;1.50;99.90;;;;;;8302452;28;20040;-84
2024/03/29 00:59:56;;;;;;;2.83;0.75;;;1.70;99.90;;;;;;8299693;28;20061;-83
2024/03/29 01:03:57;;;;;;;2.05;0.77;;;2.00;99.90;;;;;;8299826;28;20025;-84
2024/03/29 01:07:57;;;;;;;1.17;0.68;;;2.00;99.90;;;;;;8293623;28;20054;-83
2024/03/29 01:11:58;;;;;;;3.60;1.00;;;2.20;99.90;;;;;;8298129;28;20029;-84
2024/03/29 01:15:58;;;;;;;3.08;0.95;;;2.30;99.90;;;;;;8299047;28;20018;-84
2024/03/29 01:19:59;;;;;;;5.15;1.30;;;2.30;99.90;;;;;;8314479;28;20036;-84
2024/03/29 01:23:59;;;;;;;7.22;0.80;;;2.40;99.90;;;;;;8314866;28;20355;-83
2024/03/29 01:28:00;;;;;;;1.27;0.68;;;2.50;99.90;;;;;;8295556;28;20066;-83
2024/03/29 01:32:00;;;;;;;1.70;0.93;;;2.40;99.90;;;;;;8295529;28;20022;-83
2024/03/29 01:36:01;;;;;;;3.00;1.45;;;2.30;99.90;;;;;;8292513;28;20099;-84
2024/03/29 01:40:01;;;;;;;2.95;1.52;;;2.10;99.90;;;;;;8296483;28;20394;-84
2024/03/29 01:44:02;;;;;;;4.63;1.27;;;2.10;99.90;;;;;;8296934;28;20399;-84
2024/03/29 01:48:04;;;;;;;5.88;1.27;;;2.20;99.90;;;;;;8299557;28;20021;-84
2024/03/29 01:52:05;;;;;;;1.60;0.57;;;2.10;99.90;;;;;;8299240;28;20022;-84
2024/03/29 01:56:08;;;;;;;1.27;0.63;;;2.30;99.90;;;;;;8297432;28;20029;-84
2024/03/29 02:00:10;;;;;;;1.00;0.68;;;2.30;99.90;;;;;;8295912;28;20033;-84
2024/03/29 02:04:10;;;;;;;3.22;0.73;;;2.30;99.90;;;;;;8302242;28;20421;-83
2024/03/29 02:08:11;;;;;;;2.30;0.88;;;2.10;99.90;;;;;;8297237;28;20018;-84
2024/03/29 02:12:11;;;;;;;2.15;0.93;;;2.20;99.90;;;;;;8296452;28;20501;-84
2024/03/29 02:16:12;;;;;;;0.93;0.50;;;2.20;99.90;;;;;;8293586;28;20402;-84
2024/03/29 02:20:12;;;;;;;0.75;0.50;;;2.10;99.90;;;;;;8297571;28;20056;-84
2024/03/29 02:24:16;;;;;;;0.47;0.43;;;2.10;99.90;;;;;;8324645;28;20030;-84
2024/03/29 02:28:16;;;;;;;0.65;0.52;;;2.10;99.90;;;;;;8305075;28;20060;-85
2024/03/29 02:32:17;;;;;;;0.40;0.40;;;2.20;99.90;;;;;;8302746;28;20029;-84
2024/03/29 02:36:17;;;;;;;0.55;0.30;;;2.20;99.90;;;;;;8305113;28;20014;-85
2024/03/29 02:40:19;;;;;;;0.70;0.30;;;2.00;99.90;;;;;;8303021;28;20523;-83
2024/03/29 02:44:19;;;;;;;0.68;0.35;;;1.80;99.90;;;;;;8305044;28;20026;-84
2024/03/29 02:48:20;;;;;;;0.80;0.40;;;1.60;99.90;;;;;;8319571;28;20044;-84
2024/03/29 02:52:20;;;;;;;0.20;0.20;;;1.70;99.90;;;;;;8302612;28;20073;-84
2024/03/29 02:56:23;;;;;;;0.43;0.43;;;1.60;99.90;;;;;;8298772;28;20018;-84
2024/03/29 03:00:23;;;;;;;0.15;0.15;;;1.70;99.90;;;;;;8302563;28;20036;-84
2024/03/29 03:04:24;;;;;;;0.17;0.17;;;1.60;99.90;;;;;;8303502;28;20022;-83
2024/03/29 03:12:44;;;;;;;0.80;0.40;;;1.50;99.90;;;;;;8301603;28;20041;-83
2024/03/29 03:16:44;;;;;;;1.27;0.47;;;1.20;99.90;;;;;;8299462;28;20120;-84
2024/03/29 03:20:52;;;;;;;0.35;0.30;;;0.80;99.90;;;;;;8301067;28;20067;-84
2024/03/29 03:24:53;;;;;;;0.30;0.30;;;0.60;99.90;;;;;;8296868;28;20403;-84
2024/03/29 03:28:53;;;;;;;0.30;0.28;;;0.40;99.90;;;;;;8295385;28;20041;-84
2024/03/29 03:32:54;;;;;;;0.90;0.40;;;0.20;99.90;;;;;;8298560;28;20544;-84
2024/03/29 03:36:54;;;;;;;0.43;0.30;;;0.20;99.90;;;;;;8294846;28;20034;-83
2024/03/29 03:40:55;;;;;;;2.45;0.38;;;0.00;99.90;;;;;;8298669;28;20034;-85
2024/03/29 03:44:55;;;;;;;0.40;0.35;;;-0.10;99.90;;;;;;8300828;28;20036;-83
2024/03/29 03:48:56;;;;;;;0.73;0.32;;;0.20;99.90;;;;;;8300023;28;20092;-84
2024/03/29 03:52:57;;;;;;;1.35;0.82;;;0.20;99.90;;;;;;8300258;28;20026;-84
2024/03/29 03:56:58;;;;;;;3.17;0.65;;;0.10;99.90;;;;;;8296123;28;20026;-84
2024/03/29 04:01:06;;;;;;;1.75;0.90;;;-0.10;99.90;;;;;;8303693;28;20494;-85
2024/03/29 04:05:07;;;;;;;2.17;0.55;;;-0.10;99.90;;;;;;8306250;28;20053;-85
2024/03/29 04:09:08;;;;;;;0.60;0.43;;;0.00;99.90;;;;;;8303601;28;20026;-84
2024/03/29 04:13:09;;;;;;;0.68;0.50;;;-0.20;99.90;;;;;;8299824;28;20030;-84
2024/03/29 04:17:12;;;;;;;0.75;0.60;;;-0.20;99.90;;;;;;8295150;28;20540;-85
2024/03/29 04:21:12;;;;;;;2.10;0.98;;;-0.10;99.90;;;;;;8302252;28;20024;-85
2024/03/29 04:25:14;;;;;;;2.17;0.60;;;-0.10;99.90;;;;;;8298724;28;20021;-85
2024/03/29 04:29:15;;;;;;;1.55;0.75;;;-0.10;99.90;;;;;;8300611;28;20053;-85
2024/03/29 04:33:15;;;;;;;0.70;0.60;;;-0.20;99.90;;;;;;8295307;28;20014;-85
2024/03/29 04:37:16;;;;;;;0.47;0.30;;;-0.10;99.90;;;;;;8317237;28;20048;-85
2024/03/29 04:41:17;;;;;;;0.68;0.50;;;0.40;99.90;;;;;;8296295;28;20050;-85
2024/03/29 04:45:17;;;;;;;0.32;0.32;;;0.60;99.90;;;;;;8298631;28;20025;-84
2024/03/29 04:49:39;;;;;;;1.60;0.60;;;0.60;99.90;;;;;;8297089;28;20389;-85
2024/03/29 04:53:39;;;;;;;1.13;0.60;;;0.20;99.90;;;;;;8290109;28;20033;-85
2024/03/29 04:57:40;;;;;;;1.20;0.52;;;0.00;99.90;;;;;;8297271;28;20030;-85
2024/03/29 05:01:43;;;;;;;0.70;0.60;;;-0.10;99.90;;;;;;8298292;28;20033;-86
2024/03/29 05:05:44;;;;;;;0.68;0.52;;;-0.10;99.90;;;;;;8284519;28;20034;-85
2024/03/29 05:09:44;;;;;;;0.70;0.52;;;-0.20;99.90;;;;;;8295403;28;20041;-86
2024/03/29 05:13:45;;;;;;;0.55;0.50;;;-0.10;99.90;;;;;;8290604;28;20031;-83
2024/03/29 05:17:45;;;;;;;1.45;0.60;;;-0.20;99.90;;;;;;8295204;28;20038;-84
2024/03/29 05:21:46;;;;;;;1.08;0.52;;;-0.30;99.90;;;;;;8295768;28;20494;-84
2024/03/29 05:25:48;;;;;;;0.50;0.35;;;-0.10;99.90;;;;;;8304728;28;20033;-81
2024/03/29 05:29:49;;;;;;;1.02;0.45;;;-0.20;99.90;;;;;;8304475;28;20026;-83
2024/03/29 05:33:50;;;;;;;0.52;0.38;;;0.00;99.90;;;;;;8296584;28;20086;-84
2024/03/29 05:37:53;;;;;;;0.73;0.40;;;0.20;99.90;;;;;;8308517;28;20029;-81
2024/03/29 05:41:53;;;;;;;0.85;0.63;;;0.50;99.90;;;;;;8318872;28;20030;-83
2024/03/29 05:45:54;;;;;;;1.83;0.82;;;0.80;99.90;;;;;;8322887;28;20080;-83
2024/03/29 05:49:54;;;;;;;1.83;0.80;;;0.90;99.90;;;;;;8294145;28;20030;-84
2024/03/29 05:53:56;;;;;;;1.00;0.55;;;1.10;99.90;;;;;;8303101;28;20022;-83
2024/03/29 05:57:57;;;;;;;1.52;1.02;;;1.20;99.90;;;;;;8300180;28;20726;-84
2024/03/29 06:01:57;;;;;;;1.38;0.70;;;1.50;99.90;;;;;;8292705;28;20061;-83
2024/03/29 06:05:58;;;;;;;1.00;0.90;;;1.70;99.90;;;;;;8305106;28;20101;-83
2024/03/29 06:10:00;;;;;;;1.45;0.90;;;1.80;99.90;;;;;;8297559;28;20379;-84
2024/03/29 06:18:01;;;;;;;1.88;0.70;;;2.00;99.90;;;;;;8300919;28;20026;-82
2024/03/29 06:22:02;;;;;;;3.10;1.17;;;1.90;99.90;;;;;;8301777;28;20045;-84
2024/03/29 06:26:03;;;;;;;1.88;1.20;;;2.00;99.90;;;;;;8304054;28;20434;-83
2024/03/29 06:30:04;;;;;;;2.30;1.23;;;2.70;99.90;;;;;;8297439;28;20030;-83
2024/03/29 06:34:05;;;;;;;1.50;1.13;;;2.90;99.90;;;;;;8296418;28;20026;-83
2024/03/29 06:38:05;;;;;;;3.42;1.20;;;3.40;99.90;;;;;;8299679;28;20509;-83
2024/03/29 06:42:09;;;;;;;1.60;0.80;;;3.40;99.90;;;;;;8295974;28;20026;-83
2024/03/29 06:46:10;;;;;;;2.97;1.10;;;3.80;99.90;;;;;;8312930;28;20390;-83
2024/03/29 06:50:10;;;;;;;1.25;0.88;;;4.80;99.90;;;;;;8289736;28;20060;-81
2024/03/29 06:54:11;;;;;;;1.95;1.00;;;5.10;99.90;;;;;;8300233;28;20018;-83
2024/03/29 06:58:11;;;;;;;1.88;1.17;;;5.20;99.90;;;;;;8295526;28;20029;-83
2024/03/29 07:02:12;;;;;;;4.18;1.70;;;5.40;99.90;;;;;;8293070;28;20053;-81
2024/03/29 07:06:12;;;;;;;1.20;0.90;;;5.60;99.90;;;;;;8291321;28;20041;-83
2024/03/29 07:10:13;;;;;;;3.85;1.73;;;6.10;99.90;;;;;;8295181;28;20093;-81
2024/03/29 07:14:15;;;;;;;2.90;1.60;;;7.00;99.90;;;;;;8299753;28;20080;-83
2024/03/29 07:18:16;;;;;;;1.95;1.17;;;8.00;99.90;;;;;;8308561;28;20030;-83
2024/03/29 07:22:16;;;;;;;5.57;2.30;;;8.40;99.90;;;;;;8295528;28;20037;-83
2024/03/29 07:26:17;;;;;;;0.85;0.70;;;8.60;99.90;;;;;;8299362;28;20038;-83
2024/03/29 07:30:17;;;;;;;4.80;2.00;;;8.90;99.90;;;;;;8294663;28;20029;-83
2024/03/29 07:34:18;;;;;;;2.72;1.20;;;8.90;99.90;;;;;;8301595;28;20727;-82
2024/03/29 07:38:20;;;;;;;1.77;0.85;;;9.00;99.90;;;;;;8293684;28;20072;-82
2024/03/29 07:42:22;;;;;;;1.90;0.80;;;9.20;99.90;;;;;;8317874;28;20021;-83
2024/03/29 07:46:23;;;;;;;2.67;0.93;;;9.40;99.90;;;;;;8301997;28;20068;-83
2024/03/29 07:50:24;;;;;;;3.42;1.10;;;9.70;99.90;;;;;;8296551;28;20509;-83
2024/03/29 07:54:25;;;;;;;3.60;0.60;;;9.70;99.90;;;;;;8303891;28;20105;-84
2024/03/29 07:58:25;;;;;;;0.70;0.68;;;9.50;99.90;;;;;;8288606;28;20030;-83
2024/03/29 08:02:26;;;;;;;2.72;1.20;;;9.60;99.90;;;;;;8295385;28;20025;-83
2024/03/29 08:06:26;;;;;;;2.00;0.68;;;9.80;99.90;;;;;;8314647;28;20029;-83
2024/03/29 08:10:27;;;;;;;4.15;1.20;;;9.90;99.90;;;;;;8309863;28;20032;-83
2024/03/29 08:14:27;;;;;;;1.20;0.47;;;10.00;99.90;;;;;;8299218;28;20057;-84
2024/03/29 08:18:29;;;;;;;1.20;0.45;;;10.30;99.90;;;;;;8291498;28;20030;-82
2024/03/29 08:22:32;;;;;;;1.27;0.50;;;10.70;99.90;;;;;;8295488;28;20029;-83
2024/03/29 08:26:32;;;;;;;3.65;0.93;;;11.00;99.90;;;;;;8298262;28;20383;-81
2024/03/29 08:30:36;;;;;;;1.50;0.82;;;11.20;99.90;;;;;;8312859;28;20026;-83
2024/03/29 08:34:37;;;;;;;0.70;0.50;;;11.40;99.90;;;;;;8295160;28;20022;-83
2024/03/29 08:38:43;;;;;;;1.15;0.70;;;11.60;99.90;;;;;;8295635;28;20069;-83
2024/03/29 08:42:44;;;;;;;0.75;0.50;;;11.60;99.90;;;;;;8309486;28;20588;-83
2024/03/29 08:46:44;;;;;;;0.73;0.50;;;12.00;99.90;;;;;;8298033;28;20037;-83
2024/03/29 08:50:46;;;;;;;1.80;0.80;;;12.70;99.90;;;;;;8295326;28;20126;-84
2024/03/29 08:54:46;;;;;;;1.27;0.65;;;12.90;99.90;;;;;;8300718;28;20018;-83
2024/03/29 08:58:47;;;;;;;3.38;0.68;;;13.20;99.90;;;;;;8299859;28;20033;-84
2024/03/29 09:02:47;;;;;;;0.90;0.60;;;13.40;99.90;;;;;;8285226;28;20060;-83
2024/03/29 09:06:48;;;;;;;3.05;0.90;;;13.60;99.90;;;;;;8294927;28;20509;-84
2024/03/29 09:10:48;;;;;;;2.92;0.95;;;13.60;99.90;;;;;;8293649;28;20065;-84
2024/03/29 09:14:50;;;;;;;1.05;0.65;;;14.10;99.90;;;;;;8294052;28;20022;-84
2024/03/29 09:18:52;;;;;;;0.80;0.70;;;14.80;99.90;;;;;;8290385;28;20036;-84
2024/03/29 09:22:52;;;;;;;1.60;0.90;;;15.20;99.90;;;;;;8296636;28;20049;-83
2024/03/29 09:26:53;;;;;;;0.77;0.73;;;15.30;99.90;;;;;;8294828;28;20038;-84
2024/03/29 09:31:00;;;;;;;1.92;0.70;;;15.80;99.90;;;;;;8287261;28;20069;-83
2024/03/29 09:35:01;;;;;;;2.03;0.73;;;16.40;99.90;;;;;;8290147;28;20490;-84
2024/03/29 09:39:03;;;;;;;1.35;0.80;;;16.50;99.90;;;;;;8288004;28;20076;-81
2024/03/29 09:43:04;;;;;;;1.30;0.80;;;16.70;99.90;;;;;;8287059;28;20026;-82
2024/03/29 09:47:05;;;;;;;1.65;0.80;;;16.90;99.90;;;;;;8293934;28;20065;-83
2024/03/29 09:51:07;;;;;;;2.75;1.05;;;17.10;99.90;;;;;;8296026;28;20105;-83
2024/03/29 09:55:10;;;;;;;2.40;1.13;;;17.20;99.90;;;;;;8295272;28;20498;-83
2024/03/29 09:59:10;;;;;;;1.42;0.90;;;16.80;99.90;;;;;;8287626;28;20022;-83
2024/03/29 10:03:12;;;;;;;1.52;0.90;;;16.60;99.90;;;;;;8294438;28;20215;-82
2024/03/29 10:07:15;;;;;;;0.82;0.70;;;16.30;99.90;;;;;;8294621;28;20022;-84
2024/03/29 10:11:19;;;;;;;0.82;0.70;;;16.10;99.90;;;;;;8292824;28;20025;-84
2024/03/29 10:15:21;;;;;;;2.92;0.90;;;16.00;99.90;;;;;;8296675;28;20021;-84
2024/03/29 10:19:22;;;;;;;1.92;1.08;;;15.80;99.90;;;;;;8287885;28;20022;-84
2024/03/29 10:23:24;;;;;;;2.03;1.17;;;15.70;99.90;;;;;;8292769;28;20180;-84
2024/03/29 10:27:29;;;;;;;0.75;0.60;;;15.80;99.90;;;;;;8297185;28;20026;-84
2024/03/29 10:31:36;;;;;;;1.13;0.63;;;16.00;99.90;;;;;;8294229;28;20335;-84
2024/03/29 10:35:37;;;;;;;1.33;0.55;;;16.50;99.90;;;;;;8297070;28;20479;-84
2024/03/29 10:39:42;;;;;;;0.85;0.63;;;16.40;99.90;;;;;;8293702;28;20107;-84
2024/03/29 10:43:45;;;;;;;2.70;0.80;;;15.80;99.90;;;;;;8292878;28;20395;-84
2024/03/29 10:47:46;;;;;;;0.98;0.68;;;15.50;99.90;;;;;;8298074;28;20049;-82
2024/03/29 10:51:47;;;;;;;0.52;0.40;;;15.70;99.90;;;;;;8297975;28;20029;-84
2024/03/29 10:55:50;;;;;;;0.40;0.40;;;16.10;99.90;;;;;;8300587;28;20501;-83
2024/03/29 11:00:06;;;;;;;2.53;0.73;;;16.20;99.90;;;;;;8298068;28;20038;-82
2024/03/29 11:04:17;;;;;;;2.65;0.80;;;16.30;99.90;;;;;;8297417;28;20104;-86
2024/03/29 11:08:23;;;;;;;1.02;0.63;;;16.30;99.90;;;;;;8315052;28;20033;-86
2024/03/29 11:12:24;;;;;;;0.45;0.35;;;15.90;99.90;;;;;;8295241;28;20069;-87
2024/03/29 11:16:25;;;;;;;0.60;0.50;;;16.50;99.90;;;;;;8297422;28;20013;-86
2024/03/29 11:20:39;;;;;;;1.38;0.40;;;17.00;99.90;;;;;;8295738;28;20057;-86
2024/03/29 11:24:40;;;;;;;0.80;0.50;;;17.40;99.90;;;;;;8313761;28;20073;-86
2024/03/29 11:28:43;;;;;;;0.93;0.50;;;17.30;99.90;;;;;;8308564;28;20032;-85
2024/03/29 11:32:43;;;;;;;0.50;0.50;;;17.70;99.90;;;;;;8298050;28;20025;-86
2024/03/29 11:36:45;;;;;;;0.70;0.50;;;18.50;99.90;;;;;;8296879;28;20022;-88
2024/03/29 11:41:05;;;;;;;1.45;0.60;;;18.70;99.90;;;;;;8314395;28;20033;-87
2024/03/29 11:45:09;;;;;;;0.90;0.60;;;18.90;99.90;;;;;;8293955;28;20634;-87
2024/03/29 11:49:11;;;;;;;1.65;0.70;;;18.90;99.90;;;;;;8295771;28;20049;-87
2024/03/29 11:53:12;;;;;;;0.90;0.38;;;18.90;99.90;;;;;;8295479;28;20022;-85
2024/03/29 11:57:13;;;;;;;0.80;0.40;;;19.40;99.90;;;;;;8289033;28;20022;-86
2024/03/29 12:01:14;;;;;;;1.85;0.60;;;19.70;99.90;;;;;;8313004;28;20113;-87
2024/03/29 12:05:16;;;;;;;0.40;0.40;;;19.60;99.90;;;;;;8300680;28;20064;-87
2024/03/29 12:09:16;;;;;;;0.20;0.20;;;18.90;99.90;;;;;;8303613;28;20496;-86
2024/03/29 12:13:17;;;;;;;0.85;0.40;;;18.70;99.90;;;;;;8292990;28;20037;-87
2024/03/29 12:17:18;;;;;;;0.35;0.30;;;19.50;99.90;;;;;;8301277;28;20045;-88
2024/03/29 12:21:21;;;;;;;0.50;0.40;;;21.10;99.90;;;;;;8307402;28;20026;-87
2024/03/29 12:25:22;;;;;;;0.80;0.47;;;21.20;99.80;;;;;;8305328;28;20029;-88
2024/03/29 12:29:23;;;;;;;0.65;0.30;;;21.50;99.90;;;;;;8296271;28;20029;-87
2024/03/29 12:33:24;;;;;;;1.05;0.40;;;21.90;96.40;;;;;;8317455;28;20390;-87
2024/03/29 12:37:28;;;;;;;0.57;0.45;;;21.60;97.20;;;;;;8301875;28;20030;-86
2024/03/29 12:41:29;;;;;;;0.77;0.50;;;21.00;97.50;;;;;;8301559;28;20037;-86
2024/03/29 12:45:34;;;;;;;0.40;0.40;;;22.00;95.80;;;;;;8295146;28;20042;-86
2024/03/29 12:49:35;;;;;;;0.57;0.50;;;22.30;99.10;;;;;;8304920;28;20058;-87
2024/03/29 12:53:50;;;;;;;0.60;0.40;;;24.60;92.70;;;;;;8322794;28;20018;-87
2024/03/29 12:57:57;;;;;;;0.30;0.30;;;24.60;90.30;;;;;;8326385;28;20034;-87
2024/03/29 13:06:42;;;;;;;2.20;1.15;;;25.50;87.20;;;;;;8305484;28;20030;-87
2024/03/29 13:10:49;;;;;;;0.63;0.40;;;24.50;91.50;;;;;;8310336;28;20049;-88
2024/03/29 13:14:59;;;;;;;4.47;2.00;;;25.00;87.80;;;;;;8311914;28;20037;-88
2024/03/29 13:19:09;;;;;;;5.70;2.55;;;25.10;87.80;;;;;;8314249;28;20115;-88
2024/03/29 13:23:15;;;;;;;0.65;0.50;;;25.30;86.30;;;;;;8311995;28;20037;-87
2024/03/29 13:27:16;;;;;;;0.85;0.50;;;24.20;89.70;;;;;;8311262;28;20068;-88
2024/03/29 13:31:17;;;;;;;0.60;0.60;;;23.60;90.00;;;;;;8310992;28;20041;-87
2024/03/29 13:35:24;;;;;;;0.65;0.55;;;23.80;89.40;;;;;;8321690;28;20034;-87
2024/03/29 13:39:27;;;;;;;0.90;0.50;;;25.20;90.60;;;;;;8308737;28;20042;-86
2024/03/29 13:43:28;;;;;;;0.73;0.50;;;27.90;83.60;;;;;;8299689;28;20053;-86
2024/03/29 13:47:29;;;;;;;0.45;0.35;;;28.10;81.00;;;;;;8304701;28;20026;-87
2024/03/29 13:51:29;;;;;;;2.83;0.40;;;28.20;75.40;;;;;;8294951;28;20025;-86
2024/03/29 13:55:36;;;;;;;0.60;0.50;;;29.30;70.80;;;;;;8302793;28;20036;-86
2024/03/29 13:59:37;;;;;;;0.82;0.50;;;29.00;70.20;;;;;;8312753;28;20025;-87
2024/03/29 14:04:00;;;;;;;;;;;;;;;;;;;;;
2024/03/29 14:08:02;;;;;;;1.08;0.65;;;25.40;77.60;;;;;;8303164;28;20517;-86
2024/03/29 14:12:06;;;;;;;0.55;0.30;;;23.70;81.70;;;;;;8321353;28;20053;-86
2024/03/29 14:16:22;;;;;;;1.73;0.60;;;22.70;87.00;;;;;;8310866;28;20072;-86
2024/03/29 14:20:49;;;;;;;0.90;0.60;;;22.40;88.00;;;;;;8309771;28;20221;-86
2024/03/29 14:25:10;;;;;;;0.65;0.50;;;22.50;88.00;;;;;;8316713;28;20038;-87
2024/03/29 14:29:15;;;;;;;;;;;22.80;89.80;;;;;;8312656;28;20062;-86
2024/03/29 14:38:22;;;;;;;1.20;0.55;;;22.90;90.10;;;;;;8318545;28;20137;-87
2024/03/29 14:43:10;;;;;;;1.27;0.30;;;23.20;88.40;;;;;;8310211;28;20045;-86
2024/03/29 14:47:58;;;;;;;0.57;0.50;;;22.80;88.90;;;;;;8306992;28;20042;-87
2024/03/29 14:51:41;;;;;;;0.95;0.35;;;22.80;91.80;;;;;;8307001;28;20039;-87
2024/03/29 14:55:41;;;;;;;0.55;0.40;;;23.00;94.40;;;;;;8317711;28;20068;-87
2024/03/29 14:59:42;;;;;;;1.40;0.70;;;22.90;95.10;;;;;;8313421;28;20029;-87
2024/03/29 15:03:42;;;;;;;1.23;0.70;;;22.40;90.40;;;;;;8304967;28;20030;-87
2024/03/29 15:07:43;;;;;;;0.30;0.30;;;21.90;91.20;;;;;;8320647;28;20025;-86
2024/03/29 15:11:43;;;;;;;1.05;0.70;;;21.20;93.80;;;;;;8301019;28;20161;-86
2024/03/29 15:15:58;;;;;;;0.50;0.50;;;20.20;96.00;;;;;;8321120;28;20061;-86
2024/03/29 15:20:01;;;;;;;1.02;0.60;;;19.60;97.90;;;;;;8303788;28;20443;-87
2024/03/29 15:24:09;;;;;;;0.45;0.45;;;19.60;98.80;;;;;;8306805;28;20057;-87
2024/03/29 15:32:10;;;;;;;7.63;1.25;;;19.10;90.00;;;;;;8306446;28;20517;-86
2024/03/29 15:36:12;;;;;;;8.15;1.35;;;19.40;88.00;;;;;;8295975;28;20018;-87
2024/03/29 15:40:13;;;;;;;6.20;1.92;;;19.40;90.20;;;;;;8300360;28;20098;-86
2024/03/29 15:44:15;;;;;;;5.85;1.45;;;19.40;87.80;;;;;;8303415;28;20049;-84
2024/03/29 15:48:16;;;;;;;8.25;1.73;;;19.10;90.00;;;;;;8304236;28;20025;-86
2024/03/29 15:52:17;;;;;;;10.65;2.22;;;19.00;88.80;;;;;;8318994;28;20141;-86
2024/03/29 15:56:18;;;;;;;8.13;1.85;;;19.10;89.90;;;;;;8294821;28;20079;-86
2024/03/29 16:00:18;;;;;;;10.20;2.50;;;18.60;91.20;;;;;;8294293;28;20033;-86
2024/03/29 16:04:20;;;;;;;9.00;1.92;;;18.30;91.20;;;;;;8297363;28;20508;-86
2024/03/29 16:08:21;;;;;;;12.25;2.40;;;18.00;90.60;;;;;;8298928;28;20026;-86
2024/03/29 16:12:21;;;;;;;14.63;2.85;;;17.90;87.20;;;;;;8302015;28;20402;-86
2024/03/29 16:16:22;;;;;;;18.73;2.55;;;17.90;85.00;;;;;;8311516;28;20454;-86
2024/03/29 16:20:22;;;;;;;15.82;2.45;;;17.90;85.30;;;;;;8287080;28;20076;-86
2024/03/29 16:24:23;;;;;;;12.35;2.40;;;17.80;87.20;;;;;;8290366;28;20076;-86
2024/03/29 16:28:24;;;;;;;11.05;1.98;;;17.80;84.80;;;;;;8291574;28;20034;-86
2024/03/29 16:32:24;;;;;;;15.02;2.50;;;17.70;85.60;;;;;;8291982;28;20026;-86
2024/03/29 16:36:25;;;;;;;13.27;3.08;;;17.60;83.50;;;;;;8300360;28;20034;-86
2024/03/29 16:40:27;;;;;;;16.00;2.50;;;17.50;83.70;;;;;;8297543;28;20108;-86
2024/03/29 16:44:28;;;;;;;14.38;2.80;;;17.50;85.20;;;;;;8297150;28;20087;-86
2024/03/29 16:48:28;;;;;;;11.73;3.25;;;17.40;84.00;;;;;;8315066;28;20034;-87
2024/03/29 16:52:30;;;;;;;27.00;3.30;;;17.60;81.60;;;;;;8297631;28;20029;-87
2024/03/29 16:56:30;;;;;;;15.43;3.03;;;17.50;83.80;;;;;;8297402;28;20419;-86
2024/03/29 17:00:31;;;;;;;16.30;2.92;;;17.50;81.90;;;;;;8297018;28;20029;-87
2024/03/29 17:04:32;;;;;;;15.88;3.58;;;17.50;82.80;;;;;;8293541;28;20053;-87
2024/03/29 17:08:33;;;;;;;14.57;2.80;;;17.50;82.60;;;;;;8302225;28;20470;-87
2024/03/29 17:12:34;;;;;;;23.15;3.80;;;17.40;84.40;;;;;;8295191;28;20076;-87
2024/03/29 17:16:36;;;;;;;23.70;5.03;;;17.10;86.80;;;;;;8314671;28;20021;-87
2024/03/29 17:20:36;;;;;;;19.08;3.05;;;17.00;87.80;;;;;;8297184;28;20484;-88
2024/03/29 17:24:37;;;;;;;13.25;2.50;;;16.50;91.40;;;;;;8300008;28;20042;-87
2024/03/29 17:28:38;;;;;;;20.65;2.95;;;16.20;93.50;;;;;;8298907;28;20037;-87
2024/03/29 17:32:38;;;;;;;22.10;2.17;;;15.70;94.60;;;;;;8310366;28;20029;-87
2024/03/29 17:36:40;;;;;;;13.35;2.70;;;15.30;91.80;;;;;;8300956;28;20029;-87
2024/03/29 17:40:40;;;;;;;16.83;3.15;;;15.10;92.50;;;;;;8299858;28;20038;-86
2024/03/29 17:44:41;;;;;;;16.30;2.63;;;14.80;93.60;;;;;;8292662;28;20065;-87
2024/03/29 17:48:41;;;;;;;24.30;3.10;;;14.40;95.10;;;;;;8292621;28;20033;-87
2024/03/29 17:52:42;;;;;;;21.27;6.32;;;14.30;96.30;;;;;;8290657;28;20041;-86
2024/03/29 17:56:42;;;;;;;26.10;5.95;;;13.90;97.60;;;;;;8286901;28;20483;-86
2024/03/29 18:00:43;;;;;;;16.63;4.57;;;13.80;97.90;;;;;;8311898;28;20470;-87
2024/03/29 18:04:43;;;;;;;18.45;4.35;;;13.30;99.70;;;;;;8315180;28;20037;-87
2024/03/29 18:08:44;;;;;;;18.90;5.82;;;12.90;99.90;;;;;;8291162;28;20105;-87
2024/03/29 18:12:45;;;;;;;29.30;7.10;;;12.50;99.90;;;;;;8291343;28;20023;-87
2024/03/29 18:16:47;;;;;;;18.42;4.13;;;12.40;99.90;;;;;;8295879;28;20060;-87
2024/03/29 18:20:47;;;;;;;13.07;3.05;;;12.30;99.90;;;;;;8304811;28;20037;-87
2024/03/29 18:24:48;;;;;;;11.40;2.40;;;12.20;99.90;;;;;;8288899;28;20798;-87
2024/03/29 18:28:48;;;;;;;16.05;2.30;;;12.00;99.90;;;;;;8296355;28;20061;-87
2024/03/29 18:32:49;;;;;;;22.40;2.78;;;11.70;99.90;;;;;;8295163;28;20472;-87
2024/03/29 18:36:49;;;;;;;17.27;4.13;;;11.50;99.90;;;;;;8295319;28;20037;-86
2024/03/29 18:40:50;;;;;;;17.48;3.67;;;11.20;99.90;;;;;;8298290;28;20045;-86
2024/03/29 18:44:54;;;;;;;25.35;3.53;;;11.30;99.90;;;;;;8309858;28;20503;-86
2024/03/29 18:48:55;;;;;;;18.65;3.42;;;10.90;99.90;;;;;;8296032;28;20034;-87
2024/03/29 18:52:55;;;;;;;21.48;3.92;;;10.70;99.90;;;;;;8297503;28;20026;-86
2024/03/29 18:56:57;;;;;;;19.95;4.00;;;10.80;99.90;;;;;;8294083;28;20041;-87
2024/03/29 19:00:57;;;;;;;16.20;3.45;;;10.60;99.90;;;;;;8294937;28;20030;-86
2024/03/29 19:04:58;;;;;;;16.20;3.13;;;10.60;99.90;;;;;;8296312;28;20038;-87
2024/03/29 19:08:59;;;;;;;20.10;3.90;;;11.10;99.90;;;;;;8295779;28;20038;-87
2024/03/29 19:12:59;;;;;;;27.42;5.05;;;10.90;99.90;;;;;;8310790;28;20599;-87
2024/03/29 19:17:00;;;;;;;23.23;4.28;;;10.70;99.90;;;;;;8304654;28;20678;-86
2024/03/29 19:21:00;;;;;;;25.83;4.03;;;10.60;99.90;;;;;;8299689;28;20030;-86
2024/03/29 19:25:01;;;;;;;30.58;4.20;;;10.60;99.90;;;;;;8299553;28;20034;-87
2024/03/29 19:29:02;;;;;;;28.63;4.13;;;10.50;99.90;;;;;;8294691;28;20041;-87
2024/03/29 19:33:03;;;;;;;31.10;5.00;;;10.70;99.90;;;;;;8297117;28;20022;-87
2024/03/29 19:37:03;;;;;;;26.88;5.63;;;11.80;99.90;;;;;;8310696;28;20037;-87
2024/03/29 19:41:04;;;;;;;37.63;6.40;;;13.00;99.90;;;;;;8300963;28;20025;-86
2024/03/29 19:45:05;;;;;;;37.08;5.55;;;13.90;99.00;;;;;;8302286;28;20465;-87
2024/03/29 19:49:06;;;;;;;30.52;4.72;;;14.30;98.50;;;;;;8299205;28;20398;-87
2024/03/29 19:53:06;;;;;;;40.70;5.47;;;14.60;96.70;;;;;;8298362;28;20029;-86
2024/03/29 19:57:07;;;;;;;42.63;6.03;;;14.60;96.80;;;;;;8316063;28;20116;-87
2024/03/29 20:01:08;;;;;;;32.42;5.78;;;14.80;95.70;;;;;;8296990;28;20021;-86
2024/03/29 20:05:09;;;;;;;50.17;6.03;;;14.90;95.50;;;;;;8300944;28;20030;-86
2024/03/29 20:09:10;;;;;;;40.10;6.53;;;15.00;94.60;;;;;;8298058;28;20487;-86
2024/03/29 20:13:14;;;;;;;58.22;7.25;;;14.90;95.00;;;;;;8297643;28;20040;-86
2024/03/29 20:17:15;;;;;;;48.72;6.63;;;14.80;94.90;;;;;;8303968;28;20014;-86
2024/03/29 20:21:18;;;;;;;52.72;7.60;;;14.90;94.20;;;;;;8299707;28;20029;-87
2024/03/29 20:25:19;;;;;;;49.30;7.55;;;15.10;93.20;;;;;;8295851;28;20033;-86
2024/03/29 20:29:20;;;;;;;49.47;6.45;;;15.20;92.20;;;;;;8293428;28;20552;-86
2024/03/29 20:33:21;;;;;;;48.88;5.80;;;15.30;91.30;;;;;;8302209;28;20022;-86
2024/03/29 20:37:22;;;;;;;45.95;7.53;;;15.40;91.40;;;;;;8301933;28;20028;-87
2024/03/29 20:41:23;;;;;;;45.38;6.65;;;15.60;91.00;;;;;;8293070;28;20055;-87
2024/03/29 20:45:23;;;;;;;45.28;7.82;;;15.70;90.00;;;;;;8305997;28;20202;-86
2024/03/29 20:49:26;;;;;;;48.10;6.97;;;15.60;90.60;;;;;;8293772;28;20100;-87
2024/03/29 20:53:26;;;;;;;48.38;6.70;;;15.50;90.80;;;;;;8299202;28;20566;-87
2024/03/29 20:57:27;;;;;;;51.38;7.90;;;15.40;90.30;;;;;;8301974;28;20116;-87
2024/03/29 21:05:46;;;;;;;40.80;6.95;;;15.40;91.10;;;;;;8304330;28;20537;-88
2024/03/29 21:09:49;;;;;;;35.20;5.30;;;15.20;91.10;;;;;;8307511;28;20029;-87
2024/03/29 21:13:50;;;;;;;46.92;6.72;;;15.10;91.00;;;;;;8309609;28;20029;-88
2024/03/29 21:17:51;;;;;;;40.67;6.78;;;15.00;91.10;;;;;;8308143;28;20431;-87
2024/03/29 21:21:51;;;;;;;43.08;6.65;;;15.10;90.60;;;;;;8303781;28;20026;-87
2024/03/29 21:25:52;;;;;;;52.03;6.03;;;15.10;90.40;;;;;;8311312;28;20040;-87
2024/03/29 21:29:54;;;;;;;30.35;5.90;;;15.10;91.10;;;;;;8313163;28;20030;-86